Time;durP1;ratioP1;P1;durP2;ratioP2;P2;SDS_P1;SDS_P2;PMS_P1;PMS_P2;Temp;Humidity;BMP_temperature;BMP_pressure;BME280_temperature;BME280_humidity;BME280_pressure;Samples;Min_cycle;Max_cycle;Signal;HPM_P1;HPM_P2
2021/06/03 00:02:17;;;;;;;;;;;29.90;84.30;;;;;;1814154;78;20426;-90
2021/06/03 00:04:58;;;;;;;;;;;29.90;83.90;;;;;;1807050;78;20141;-91
2021/06/03 00:07:22;;;;;;;;;;;29.90;83.80;;;;;;1802946;79;20213;-91
2021/06/03 00:09:54;;;;;;;;;;;30.00;84.20;;;;;;1795258;79;20194;-91
2021/06/03 00:12:33;;;;;;;;;;;30.00;83.30;;;;;;1800757;79;20186;-90
2021/06/03 00:15:05;;;;;;;;;;;30.00;83.30;;;;;;1812377;77;20213;-91
2021/06/03 00:17:49;;;;;;;;;;;30.10;83.00;;;;;;1828488;77;20442;-91
2021/06/03 00:20:27;;;;;;;;;;;30.10;83.00;;;;;;1796529;77;20191;-90
2021/06/03 00:22:57;;;;;;;;;;;30.20;82.90;;;;;;1765995;79;20263;-90
2021/06/03 00:25:28;;;;;;;;;;;30.20;82.90;;;;;;1763407;80;20289;-91
2021/06/03 00:27:58;;;;;;;;;;;30.30;82.40;;;;;;1785853;79;20217;-91
2021/06/03 00:30:28;;;;;;;;;;;30.30;81.50;;;;;;1817260;77;20227;-90
2021/06/03 00:32:58;;;;;;;;;;;30.40;81.30;;;;;;1815403;77;20408;-90
2021/06/03 00:35:29;;;;;;;;;;;30.40;81.10;;;;;;1822996;77;20316;-90
2021/06/03 00:37:59;;;;;;;;;;;30.40;81.40;;;;;;1819639;77;20201;-90
2021/06/03 00:40:29;;;;;;;;;;;30.50;81.70;;;;;;1820265;77;20186;-91
2021/06/03 00:42:59;;;;;;;;;;;30.50;80.90;;;;;;1821804;77;20251;-90
2021/06/03 00:45:30;;;;;;;;;;;30.60;80.50;;;;;;1861908;74;20203;-90
2021/06/03 00:48:01;;;;;;;;;;;30.60;80.60;;;;;;1858330;76;20143;-90
2021/06/03 00:50:32;;;;;;;;;;;30.70;80.60;;;;;;1931146;73;20170;-90
2021/06/03 00:53:03;;;;;;;;;;;30.70;80.00;;;;;;1886099;74;20173;-91
2021/06/03 00:55:37;;;;;;;;;;;30.80;80.20;;;;;;1859535;76;20270;-90
2021/06/03 00:58:07;;;;;;;;;;;30.90;79.10;;;;;;1887035;74;20246;-89
2021/06/03 01:00:38;;;;;;;;;;;30.90;79.10;;;;;;1869063;75;20243;-93
2021/06/03 01:03:09;;;;;;;;;;;31.00;79.50;;;;;;1870066;76;20234;-92
2021/06/03 01:05:40;;;;;;;;;;;31.10;79.30;;;;;;1886681;74;20207;-91
2021/06/03 01:08:17;;;;;;;;;;;31.20;79.00;;;;;;1889153;74;20202;-91
2021/06/03 01:10:49;;;;;;;;;;;31.30;78.70;;;;;;1884803;74;20175;-91
2021/06/03 01:13:20;;;;;;;;;;;31.40;78.00;;;;;;1855124;76;20140;-91
2021/06/03 01:15:51;;;;;;;;;;;31.50;77.50;;;;;;1886226;74;20211;-92
2021/06/03 01:18:21;;;;;;;;;;;31.50;77.50;;;;;;1880572;75;20171;-90
2021/06/03 01:20:57;;;;;;;;;;;31.60;77.60;;;;;;1870034;76;20208;-91
2021/06/03 01:23:28;;;;;;;;;;;31.70;76.90;;;;;;1868992;75;20121;-91
2021/06/03 01:26:16;;;;;;;;;;;31.70;77.40;;;;;;1871735;76;20148;-93
2021/06/03 01:29:03;;;;;;;;;;;31.80;77.20;;;;;;1858937;75;20562;-92
2021/06/03 01:31:33;;;;;;;;;;;31.90;76.60;;;;;;1887871;75;20118;-92
2021/06/03 01:34:06;;;;;;;;;;;32.00;76.40;;;;;;1839635;76;20247;-91
2021/06/03 01:36:41;;;;;;;;;;;32.10;75.00;;;;;;1845392;76;20154;-92
2021/06/03 01:39:10;;;;;;;;;;;32.10;75.00;;;;;;1846510;76;20123;-93
2021/06/03 01:41:41;;;;;;;;;;;32.20;75.20;;;;;;1890595;75;20197;-93
2021/06/03 01:44:11;;;;;;;;;;;32.30;74.90;;;;;;1879855;75;20173;-93
2021/06/03 01:46:41;;;;;;;;;;;32.40;74.50;;;;;;1869359;75;20329;-92
2021/06/03 01:49:13;;;;;;;;;;;32.40;74.80;;;;;;1852369;76;20199;-92
2021/06/03 01:51:43;;;;;;;;;;;32.60;74.40;;;;;;1881737;75;20156;-94
2021/06/03 01:54:13;;;;;;;;;;;32.70;73.90;;;;;;1867202;76;20444;-93
2021/06/03 01:56:44;;;;;;;;;;;32.80;73.00;;;;;;1858560;76;20208;-90
2021/06/03 01:59:18;;;;;;;;;;;32.90;72.20;;;;;;1879008;76;20596;-92
2021/06/03 02:01:46;;;;;;;;;;;33.00;71.90;;;;;;1863350;75;20593;-93
2021/06/03 02:04:17;;;;;;;;;;;33.00;72.00;;;;;;1891580;75;20565;-91
2021/06/03 02:06:47;;;;;;;;;;;33.10;71.40;;;;;;1854720;76;20460;-93
2021/06/03 02:09:17;;;;;;;;;;;33.10;70.80;;;;;;1871159;75;20215;-93
2021/06/03 02:11:48;;;;;;;;;;;33.20;70.30;;;;;;1881076;75;20168;-92
2021/06/03 02:14:19;;;;;;;;;;;33.20;70.60;;;;;;1887752;75;20153;-93
2021/06/03 02:16:51;;;;;;;;;;;33.30;70.70;;;;;;1857150;76;20284;-91
2021/06/03 02:19:25;;;;;;;;;;;33.40;68.70;;;;;;1890567;75;20227;-92
2021/06/03 02:21:56;;;;;;;;;;;33.40;69.10;;;;;;1893949;74;20314;-92
2021/06/03 02:24:27;;;;;;;;;;;33.40;69.20;;;;;;1879526;75;20404;-93
2021/06/03 02:26:57;;;;;;;;;;;33.50;70.40;;;;;;1900663;74;20221;-94
2021/06/03 02:29:46;;;;;;;;;;;33.60;70.20;;;;;;1893313;74;20278;-91
2021/06/03 02:32:17;;;;;;;;;;;33.70;68.60;;;;;;1878364;75;20158;-95
2021/06/03 02:34:53;;;;;;;;;;;33.80;68.40;;;;;;1850500;76;20185;-91
2021/06/03 02:37:43;;;;;;;;;;;33.80;68.60;;;;;;1926992;73;20280;-93
2021/06/03 02:40:25;;;;;;;;;;;;;;;;;;;;;
2021/06/03 02:43:09;;;;;;;;;;;34.00;68.00;;;;;;1843692;76;20321;-94
2021/06/03 02:46:00;;;;;;;;;;;34.00;66.90;;;;;;1932560;73;20204;-93
2021/06/03 02:48:27;;;;;;;;;;;34.10;66.30;;;;;;1843570;76;20205;-91
2021/06/03 02:51:08;;;;;;;;;;;34.20;66.10;;;;;;1928940;73;20458;-91
2021/06/03 02:53:34;;;;;;;;;;;34.30;65.50;;;;;;1922470;73;20124;-89
2021/06/03 02:56:06;;;;;;;;;;;34.30;65.50;;;;;;1925712;73;20176;-91
2021/06/03 02:58:42;;;;;;;;;;;34.30;64.90;;;;;;1928477;73;20167;-88
2021/06/03 03:01:13;;;;;;;;;;;34.40;64.60;;;;;;1838731;76;20450;-91
2021/06/03 03:03:49;;;;;;;;;;;34.50;63.90;;;;;;1831049;77;20368;-90
2021/06/03 03:06:19;;;;;;;;;;;34.50;64.20;;;;;;1833293;76;20425;-90
2021/06/03 03:08:49;;;;;;;;;;;34.70;64.00;;;;;;1829773;77;20182;-90
2021/06/03 03:11:25;;;;;;;;;;;34.70;63.60;;;;;;1832078;77;20189;-91
2021/06/03 03:13:59;;;;;;;;;;;34.80;63.00;;;;;;1834906;76;20190;-90
2021/06/03 03:16:40;;;;;;;;;;;34.80;62.60;;;;;;1837594;77;20245;-91
2021/06/03 03:19:15;;;;;;;;;;;34.80;62.30;;;;;;1839718;77;20253;-91
2021/06/03 03:21:43;;;;;;;;;;;34.90;62.50;;;;;;1792744;78;20530;-90
2021/06/03 03:24:17;;;;;;;;;;;34.90;62.40;;;;;;1796631;76;20181;-91
2021/06/03 03:26:58;;;;;;;;;;;34.80;62.50;;;;;;1932063;73;20209;-89
2021/06/03 03:29:40;;;;;;;;;;;34.90;62.30;;;;;;1931248;73;20617;-90
2021/06/03 03:32:09;;;;;;;;;;;35.00;62.70;;;;;;1937201;73;20331;-91
2021/06/03 03:34:44;;;;;;;;;;;35.10;62.00;;;;;;1939666;73;20210;-87
2021/06/03 03:37:14;;;;;;;;;;;35.20;64.20;;;;;;1925034;72;20210;-88
2021/06/03 03:39:44;;;;;;;;;;;35.30;61.90;;;;;;1927632;74;20174;-85
2021/06/03 03:42:17;;;;;;;;;;;35.30;60.30;;;;;;1915639;74;20200;-87
2021/06/03 03:44:49;;;;;;;;;;;35.30;60.50;;;;;;1924932;73;20187;-90
2021/06/03 03:47:19;;;;;;;;;;;35.40;60.70;;;;;;1913076;73;20267;-89
2021/06/03 03:49:50;;;;;;;;;;;35.30;59.90;;;;;;1915587;74;20215;-90
2021/06/03 03:52:20;;;;;;;;;;;35.30;62.00;;;;;;1914779;74;20187;-89
2021/06/03 03:54:50;;;;;;;;;;;35.30;60.00;;;;;;1932975;74;20177;-88
2021/06/03 03:57:21;;;;;;;;;;;35.30;62.00;;;;;;1913935;75;20215;-89
2021/06/03 03:59:51;;;;;;;;;;;35.40;62.60;;;;;;1907838;74;20181;-89
2021/06/03 04:02:28;;;;;;;;;;;35.50;61.20;;;;;;1850932;76;20476;-89
2021/06/03 04:05:04;;;;;;;;;;;35.50;62.60;;;;;;1912336;74;20216;-90
2021/06/03 04:07:55;;;;;;;;;;;35.70;62.50;;;;;;1917487;74;20226;-89
2021/06/03 04:10:46;;;;;;;;;;;35.80;61.30;;;;;;1861252;75;20199;-90
2021/06/03 04:13:13;;;;;;;;;;;35.80;60.50;;;;;;1886817;74;20317;-89
2021/06/03 04:15:57;;;;;;;;;;;;;;;;;;;;;
2021/06/03 04:18:38;;;;;;;;;;;36.00;59.90;;;;;;1841097;76;20229;-89
2021/06/03 04:21:09;;;;;;;;;;;36.00;59.60;;;;;;1919818;74;20498;-89
2021/06/03 04:23:48;;;;;;;;;;;36.00;60.50;;;;;;1920763;73;20211;-90
2021/06/03 04:26:18;;;;;;;;;;;36.10;58.80;;;;;;1917664;73;20170;-89
2021/06/03 04:28:48;;;;;;;;;;;36.20;58.30;;;;;;1915797;75;20185;-90
2021/06/03 04:31:18;;;;;;;;;;;36.20;58.20;;;;;;1908773;74;20489;-90
2021/06/03 04:33:55;;;;;;;;;;;36.20;58.00;;;;;;1909957;74;20176;-89
2021/06/03 04:36:28;;;;;;;;;;;36.20;56.50;;;;;;1907431;74;20217;-83
2021/06/03 04:38:58;;;;;;;;;;;36.20;56.60;;;;;;1903823;74;20206;-89
2021/06/03 04:41:46;;;;;;;;;;;36.10;56.90;;;;;;1883921;74;20188;-83
2021/06/03 04:44:16;;;;;;;;;;;36.20;57.10;;;;;;1910703;74;20313;-84
2021/06/03 04:46:50;;;;;;;;;;;36.10;56.40;;;;;;1859118;76;20475;-83
2021/06/03 04:49:18;;;;;;;;;;;36.10;57.00;;;;;;1861695;76;20172;-84
2021/06/03 04:51:48;;;;;;;;;;;36.20;57.40;;;;;;1835699;76;20201;-84
2021/06/03 04:54:18;;;;;;;;;;;36.20;56.30;;;;;;1866665;75;20157;-83
2021/06/03 04:56:50;;;;;;;;;;;36.20;56.70;;;;;;1867888;75;20149;-84
2021/06/03 04:59:22;;;;;;;;;;;36.30;56.90;;;;;;1825283;77;20291;-82
2021/06/03 05:01:54;;;;;;;;;;;36.50;57.50;;;;;;1856439;76;20272;-84
2021/06/03 05:04:27;;;;;;;;;;;36.60;56.10;;;;;;1861044;76;20479;-83
2021/06/03 05:06:57;;;;;;;;;;;36.70;55.10;;;;;;1859032;76;20196;-83
2021/06/03 05:09:27;;;;;;;;;;;36.80;55.30;;;;;;1820336;77;20482;-82
2021/06/03 05:11:59;;;;;;;;;;;36.90;55.10;;;;;;1822185;77;20156;-84
2021/06/03 05:14:29;;;;;;;;;;;37.00;54.60;;;;;;1834769;76;20133;-83
2021/06/03 05:16:59;;;;;;;;;;;36.90;54.00;;;;;;1833819;77;20270;-83
2021/06/03 05:19:31;;;;;;;;;;;36.80;54.20;;;;;;1816784;77;20169;-82
2021/06/03 05:22:01;;;;;;;;;;;36.80;53.80;;;;;;1819334;77;20170;-84
2021/06/03 05:24:32;;;;;;;;;;;36.80;54.90;;;;;;1815850;77;20190;-83
2021/06/03 05:27:04;;;;;;;;;;;36.80;53.80;;;;;;1848049;75;20195;-83
2021/06/03 05:29:37;;;;;;;;;;;36.80;54.10;;;;;;1870929;75;20555;-83
2021/06/03 05:32:07;;;;;;;;;;;36.80;54.60;;;;;;1814642;77;20213;-82
2021/06/03 05:34:38;;;;;;;;;;;37.00;53.70;;;;;;1868191;75;20208;-82
2021/06/03 05:37:10;;;;;;;;;;;37.00;52.70;;;;;;1857803;75;20222;-82
2021/06/03 05:42:27;;;;;;;;;;;37.00;54.10;;;;;;1843353;75;20210;-82
2021/06/03 05:45:03;;;;;;;;;;;37.00;55.10;;;;;;1875900;75;20284;-82
2021/06/03 05:47:28;;;;;;;;;;;37.00;54.80;;;;;;1872254;75;20224;-82
2021/06/03 05:49:58;;;;;;;;;;;37.10;55.10;;;;;;1871904;75;20188;-83
2021/06/03 05:52:28;;;;;;;;;;;37.10;53.30;;;;;;1871532;75;20196;-82
2021/06/03 05:54:59;;;;;;;;;;;37.00;53.00;;;;;;1871813;75;20180;-82
2021/06/03 05:57:29;;;;;;;;;;;37.00;52.90;;;;;;1876478;75;20259;-83
2021/06/03 06:00:04;;;;;;;;;;;36.90;52.60;;;;;;1881085;75;20192;-84
2021/06/03 06:02:45;;;;;;;;;;;36.90;53.30;;;;;;1870943;75;20524;-84
2021/06/03 06:07:35;;;;;;;;;;;36.90;53.70;;;;;;1877036;75;20177;-84
2021/06/03 06:10:09;;;;;;;;;;;36.80;54.30;;;;;;1872415;75;20188;-83
2021/06/03 06:12:39;;;;;;;;;;;36.80;53.80;;;;;;1916748;73;20637;-85
2021/06/03 06:15:09;;;;;;;;;;;36.80;54.70;;;;;;1916729;73;20145;-84
2021/06/03 06:17:39;;;;;;;;;;;36.90;54.20;;;;;;1914545;73;20216;-84
2021/06/03 06:20:09;;;;;;;;;;;36.90;53.90;;;;;;1923293;73;20131;-84
2021/06/03 06:22:41;;;;;;;;;;;36.90;53.70;;;;;;1925468;73;20196;-85
2021/06/03 06:25:11;;;;;;;;;;;36.90;53.80;;;;;;1920313;73;20173;-84
2021/06/03 06:27:41;;;;;;;;;;;37.00;54.20;;;;;;1883670;74;20158;-85
2021/06/03 06:30:11;;;;;;;;;;;36.90;54.00;;;;;;1878856;75;20198;-84
2021/06/03 06:32:42;;;;;;;;;;;36.80;53.50;;;;;;1875358;75;20522;-85
2021/06/03 06:35:12;;;;;;;;;;;36.60;52.90;;;;;;1882781;75;20179;-85
2021/06/03 06:37:42;;;;;;;;;;;36.60;54.20;;;;;;1873589;75;20250;-84
2021/06/03 06:40:13;;;;;;;;;;;36.50;52.30;;;;;;1880068;75;20515;-86
2021/06/03 06:42:43;;;;;;;;;;;36.50;52.50;;;;;;1912258;73;20205;-85
2021/06/03 06:45:13;;;;;;;;;;;36.40;52.40;;;;;;1914974;74;20185;-84
2021/06/03 06:47:43;;;;;;;;;;;36.40;52.50;;;;;;1910412;74;20139;-83
2021/06/03 06:50:14;;;;;;;;;;;36.40;53.60;;;;;;1918356;74;20197;-84
2021/06/03 06:52:44;;;;;;;;;;;36.50;53.70;;;;;;1916609;73;20505;-84
2021/06/03 06:55:14;;;;;;;;;;;36.60;53.00;;;;;;1916887;73;20139;-84
2021/06/03 06:57:44;;;;;;;;;;;36.60;52.80;;;;;;1909642;75;20130;-84
2021/06/03 07:00:14;;;;;;;;;;;36.60;53.20;;;;;;1908601;74;20191;-83
2021/06/03 07:02:44;;;;;;;;;;;36.80;52.70;;;;;;1912008;74;20165;-85
2021/06/03 07:05:14;;;;;;;;;;;36.80;51.50;;;;;;1910006;73;20288;-84
2021/06/03 07:07:44;;;;;;;;;;;36.80;52.50;;;;;;1913329;74;20273;-85
2021/06/03 07:10:14;;;;;;;;;;;36.80;53.50;;;;;;1914041;73;20512;-84
2021/06/03 07:12:44;;;;;;;;;;;36.70;53.60;;;;;;1923394;73;20237;-85
2021/06/03 07:15:15;;;;;;;;;;;36.70;53.20;;;;;;1911861;73;20421;-85
2021/06/03 07:17:45;;;;;;;;;;;36.70;53.90;;;;;;1915512;73;20515;-84
2021/06/03 07:20:16;;;;;;;;;;;36.70;53.40;;;;;;1912093;74;20507;-83
2021/06/03 07:22:47;;;;;;;;;;;36.80;53.30;;;;;;1872177;76;20129;-85
2021/06/03 07:25:22;;;;;;;;;;;36.80;53.00;;;;;;1845469;77;20122;-84
2021/06/03 07:27:51;;;;;;;;;;;36.90;52.50;;;;;;1843732;76;20266;-84
2021/06/03 07:30:22;;;;;;;;;;;36.80;53.00;;;;;;1871536;74;20235;-84
2021/06/03 07:32:53;;;;;;;;;;;36.80;53.00;;;;;;1875419;76;20156;-84
2021/06/03 07:35:24;;;;;;;;;;;36.90;53.10;;;;;;1911064;74;20201;-83
2021/06/03 07:37:54;;;;;;;;;;;36.90;52.50;;;;;;1900464;74;20260;-83
2021/06/03 07:40:26;;;;;;;;;;;36.90;52.10;;;;;;1922521;73;20194;-84
2021/06/03 07:42:56;;;;;;;;;;;37.00;52.20;;;;;;1870685;75;20253;-84
2021/06/03 07:45:27;;;;;;;;;;;37.00;52.20;;;;;;1876343;75;20213;-83
2021/06/03 07:47:58;;;;;;;;;;;36.90;52.10;;;;;;1870550;75;20133;-85
2021/06/03 07:50:31;;;;;;;;;;;37.00;51.60;;;;;;1867801;75;20207;-84
2021/06/03 07:53:02;;;;;;;;;;;36.90;51.30;;;;;;1849476;76;20265;-83
2021/06/03 07:55:32;;;;;;;;;;;36.80;51.50;;;;;;1878119;75;20228;-83
2021/06/03 07:58:03;;;;;;;;;;;36.80;52.20;;;;;;1884371;75;20200;-84
2021/06/03 08:00:35;;;;;;;;;;;36.80;52.30;;;;;;1858664;76;20912;-84
2021/06/03 08:03:05;;;;;;;;;;;36.80;51.80;;;;;;1878221;75;20171;-84
2021/06/03 08:05:36;;;;;;;;;;;36.80;51.90;;;;;;1855840;75;20254;-83
2021/06/03 08:08:06;;;;;;;;;;;36.70;51.90;;;;;;1856403;76;20241;-85
2021/06/03 08:10:38;;;;;;;;;;;36.70;52.20;;;;;;1861923;76;20240;-83
2021/06/03 08:13:08;;;;;;;;;;;36.80;52.20;;;;;;1856701;76;20209;-85
2021/06/03 08:15:40;;;;;;;;;;;36.80;52.30;;;;;;1833402;76;20212;-84
2021/06/03 08:18:15;;;;;;;;;;;36.80;51.70;;;;;;1879087;75;20212;-84
2021/06/03 08:20:48;;;;;;;;;;;36.70;52.30;;;;;;1871480;75;20169;-79
2021/06/03 08:23:19;;;;;;;;;;;36.60;52.20;;;;;;1879485;75;20287;-85
2021/06/03 08:25:49;;;;;;;;;;;36.50;52.40;;;;;;1879852;75;20176;-83
2021/06/03 08:28:21;;;;;;;;;;;36.40;52.60;;;;;;1873723;75;20204;-84
2021/06/03 08:30:52;;;;;;;;;;;36.40;53.40;;;;;;1854002;75;20567;-85
2021/06/03 08:33:22;;;;;;;;;;;36.40;52.80;;;;;;1856220;76;20186;-85
2021/06/03 08:36:05;;;;;;;;;;;36.50;52.50;;;;;;1880400;75;20133;-84
2021/06/03 08:38:30;;;;;;;;;;;36.60;52.30;;;;;;1873236;75;20295;-85
2021/06/03 08:41:01;;;;;;;;;;;36.60;52.30;;;;;;1883634;75;20136;-87
2021/06/03 08:43:32;;;;;;;;;;;36.60;52.00;;;;;;1883261;75;20183;-85
2021/06/03 08:46:04;;;;;;;;;;;36.60;52.10;;;;;;1882327;75;20129;-83
2021/06/03 08:48:37;;;;;;;;;;;36.60;52.40;;;;;;1864573;76;20259;-83
2021/06/03 08:51:14;;;;;;;;;;;36.60;52.30;;;;;;1882641;75;20197;-84
2021/06/03 08:53:44;;;;;;;;;;;36.60;51.70;;;;;;1875691;76;20207;-84
2021/06/03 08:56:18;;;;;;;;;;;36.60;52.20;;;;;;1879310;75;20224;-83
2021/06/03 08:58:50;;;;;;;;;;;36.60;52.90;;;;;;1874559;75;20219;-83
2021/06/03 09:01:25;;;;;;;;;;;36.70;52.60;;;;;;1880676;74;20140;-83
2021/06/03 09:03:52;;;;;;;;;;;36.80;52.20;;;;;;1884937;74;20191;-84
2021/06/03 09:06:24;;;;;;;;;;;36.80;51.70;;;;;;1849063;76;20255;-84
2021/06/03 09:08:59;;;;;;;;;;;36.90;51.60;;;;;;1835786;76;20230;-82
2021/06/03 09:11:28;;;;;;;;;;;36.80;51.90;;;;;;1840568;77;20192;-84
2021/06/03 09:14:03;;;;;;;;;;;36.80;51.70;;;;;;1863298;76;20215;-84
2021/06/03 09:16:32;;;;;;;;;;;36.80;51.90;;;;;;1921772;73;20245;-84
2021/06/03 09:19:16;;;;;;;;;;;36.70;51.90;;;;;;1874242;75;20175;-83
2021/06/03 09:21:47;;;;;;;;;;;36.70;52.40;;;;;;1852507;76;20450;-83
2021/06/03 09:24:18;;;;;;;;;;;36.70;52.20;;;;;;1879138;75;20381;-83
2021/06/03 09:26:49;;;;;;;;;;;36.60;52.50;;;;;;1843742;77;20225;-84
2021/06/03 09:29:21;;;;;;;;;;;36.70;52.90;;;;;;1874225;76;20225;-84
2021/06/03 09:31:52;;;;;;;;;;;36.70;53.00;;;;;;1876406;76;20225;-84
2021/06/03 09:34:23;;;;;;;;;;;36.70;51.10;;;;;;1874265;75;20178;-83
2021/06/03 09:36:54;;;;;;;;;;;36.60;51.60;;;;;;1876828;76;20161;-84
2021/06/03 09:39:26;;;;;;;;;;;36.50;51.30;;;;;;1883692;75;20216;-84
2021/06/03 09:41:58;;;;;;;;;;;36.50;51.80;;;;;;1884919;76;20158;-84
2021/06/03 09:44:27;;;;;;;;;;;36.50;52.60;;;;;;1890665;74;20202;-84
2021/06/03 09:46:58;;;;;;;;;;;36.50;53.00;;;;;;1900321;74;20212;-84
2021/06/03 09:49:30;;;;;;;;;;;36.50;52.90;;;;;;1893925;74;20171;-84
2021/06/03 09:52:02;;;;;;;;;;;36.50;53.60;;;;;;1848648;76;20287;-84
2021/06/03 09:54:32;;;;;;;;;;;36.50;53.50;;;;;;1897092;74;20406;-84
2021/06/03 09:57:06;;;;;;;;;;;36.50;53.70;;;;;;1894979;74;20162;-84
2021/06/03 09:59:39;;;;;;;;;;;36.50;53.90;;;;;;1893864;74;20257;-86
2021/06/03 10:02:10;;;;;;;;;;;36.50;53.50;;;;;;1899590;74;20184;-85
2021/06/03 10:04:40;;;;;;;;;;;36.50;53.80;;;;;;1903555;74;20195;-86
2021/06/03 10:07:11;;;;;;;;;;;36.50;53.90;;;;;;1885339;74;20193;-82
2021/06/03 10:09:42;;;;;;;;;;;36.50;53.90;;;;;;1893501;74;20194;-85
2021/06/03 10:12:19;;;;;;;;;;;36.40;53.50;;;;;;1895313;74;20430;-80
2021/06/03 10:14:50;;;;;;;;;;;36.40;53.80;;;;;;1891365;75;20508;-82
2021/06/03 10:17:21;;;;;;;;;;;36.30;54.00;;;;;;1858672;76;20199;-82
2021/06/03 10:19:52;;;;;;;;;;;36.30;55.10;;;;;;1893958;74;20190;-82
2021/06/03 10:22:27;;;;;;;;;;;36.30;54.70;;;;;;1890560;75;20160;-83
2021/06/03 10:24:59;;;;;;;;;;;36.20;55.00;;;;;;1897531;74;20164;-83
2021/06/03 10:27:31;;;;;;;;;;;36.10;55.10;;;;;;1894739;74;20170;-82
2021/06/03 10:30:05;;;;;;;;;;;36.10;55.40;;;;;;1888640;74;20172;-81
2021/06/03 10:32:37;;;;;;;;;;;36.10;55.50;;;;;;1855704;76;20229;-82
2021/06/03 10:35:08;;;;;;;;;;;36.10;55.50;;;;;;1891757;75;20499;-82
2021/06/03 10:37:38;;;;;;;;;;;36.00;55.40;;;;;;1893785;74;20249;-82
2021/06/03 10:40:10;;;;;;;;;;;36.00;55.50;;;;;;1900398;74;20254;-82
2021/06/03 10:42:40;;;;;;;;;;;36.00;55.50;;;;;;1900398;74;20492;-82
2021/06/03 10:45:11;;;;;;;;;;;36.00;55.70;;;;;;1896058;74;20228;-82
2021/06/03 10:47:42;;;;;;;;;;;35.90;55.60;;;;;;1900383;74;20135;-83
2021/06/03 10:50:14;;;;;;;;;;;35.80;55.60;;;;;;1899646;74;20212;-82
2021/06/03 10:52:45;;;;;;;;;;;35.80;56.30;;;;;;1900005;74;20174;-82
2021/06/03 10:55:16;;;;;;;;;;;35.80;56.80;;;;;;1895322;74;20253;-82
2021/06/03 10:57:45;;;;;;;;;;;35.80;57.70;;;;;;1896189;74;20209;-82
2021/06/03 11:00:16;;;;;;;;;;;35.70;58.30;;;;;;1905488;74;20210;-82
2021/06/03 11:02:48;;;;;;;;;;;35.60;58.50;;;;;;1896755;74;20158;-82
2021/06/03 11:05:19;;;;;;;;;;;35.50;58.80;;;;;;1891521;74;20205;-82
2021/06/03 11:07:52;;;;;;;;;;;35.40;59.20;;;;;;1886027;74;20201;-82
2021/06/03 11:10:23;;;;;;;;;;;35.40;59.20;;;;;;1878800;74;20226;-82
2021/06/03 11:12:55;;;;;;;;;;;35.40;59.40;;;;;;1894897;75;20132;-81
2021/06/03 11:15:25;;;;;;;;;;;35.30;59.60;;;;;;1893828;75;20135;-82
2021/06/03 11:17:56;;;;;;;;;;;35.30;59.70;;;;;;1895053;76;20169;-82
2021/06/03 11:20:27;;;;;;;;;;;35.20;59.80;;;;;;1893962;76;20224;-83
2021/06/03 11:22:57;;;;;;;;;;;35.10;60.00;;;;;;1893663;74;20202;-83
2021/06/03 11:25:31;;;;;;;;;;;35.10;60.20;;;;;;1896773;74;20455;-82
2021/06/03 11:28:02;;;;;;;;;;;35.00;60.40;;;;;;1899015;74;20189;-83
2021/06/03 11:30:32;;;;;;;;;;;35.00;60.60;;;;;;1884994;74;20194;-82
2021/06/03 11:33:02;;;;;;;;;;;34.90;61.70;;;;;;1892165;74;20249;-84
2021/06/03 11:35:33;;;;;;;;;;;34.80;61.00;;;;;;1889632;74;20158;-82
2021/06/03 11:38:05;;;;;;;;;;;34.70;60.90;;;;;;1898834;74;20155;-81
2021/06/03 11:40:36;;;;;;;;;;;34.70;61.20;;;;;;1891463;73;20208;-82
2021/06/03 11:43:07;;;;;;;;;;;34.70;61.80;;;;;;1894809;74;20278;-81
2021/06/03 11:45:40;;;;;;;;;;;34.60;61.50;;;;;;1895328;74;20250;-82
2021/06/03 11:48:11;;;;;;;;;;;34.60;62.00;;;;;;1894824;74;20180;-83
2021/06/03 11:50:42;;;;;;;;;;;34.60;61.80;;;;;;1894447;74;20254;-82
2021/06/03 11:53:13;;;;;;;;;;;34.50;62.10;;;;;;1894455;74;20206;-82
2021/06/03 11:55:44;;;;;;;;;;;34.50;62.20;;;;;;1845475;76;20198;-82
2021/06/03 11:58:15;;;;;;;;;;;34.50;62.40;;;;;;1885267;74;20408;-82
2021/06/03 12:00:46;;;;;;;;;;;34.50;62.50;;;;;;1895834;75;20254;-84
2021/06/03 12:03:17;;;;;;;;;;;34.40;62.70;;;;;;1884786;74;20568;-82
2021/06/03 12:05:48;;;;;;;;;;;34.40;62.80;;;;;;1890283;75;20223;-82
2021/06/03 12:08:19;;;;;;;;;;;34.40;62.70;;;;;;1885974;75;20177;-81
2021/06/03 12:10:51;;;;;;;;;;;34.40;63.10;;;;;;1835623;76;20213;-82
2021/06/03 12:13:21;;;;;;;;;;;34.30;63.30;;;;;;1885822;74;20577;-82
2021/06/03 12:15:51;;;;;;;;;;;34.30;63.10;;;;;;1892683;74;20188;-82
2021/06/03 12:18:21;;;;;;;;;;;34.30;63.10;;;;;;1877293;75;20162;-83
2021/06/03 12:20:53;;;;;;;;;;;34.30;63.10;;;;;;1904164;74;20116;-82
2021/06/03 12:23:24;;;;;;;;;;;34.30;62.90;;;;;;1870943;75;20190;-82
2021/06/03 12:25:54;;;;;;;;;;;34.30;63.20;;;;;;1878523;76;20206;-82
2021/06/03 12:28:24;;;;;;;;;;;34.20;62.90;;;;;;1869031;75;20498;-82
2021/06/03 12:30:54;;;;;;;;;;;34.30;63.00;;;;;;1893165;74;20276;-82
2021/06/03 12:33:27;;;;;;;;;;;34.20;63.30;;;;;;1886882;74;20200;-83
2021/06/03 12:36:01;;;;;;;;;;;34.20;63.60;;;;;;1901019;74;20197;-83
2021/06/03 12:38:32;;;;;;;;;;;34.20;64.00;;;;;;1894915;75;20129;-84
2021/06/03 12:41:03;;;;;;;;;;;34.20;64.50;;;;;;1898202;74;20279;-83
2021/06/03 12:43:34;;;;;;;;;;;34.10;64.20;;;;;;1853876;76;20215;-83
2021/06/03 12:46:04;;;;;;;;;;;34.10;64.20;;;;;;1846699;76;20164;-84
2021/06/03 12:48:36;;;;;;;;;;;34.10;64.20;;;;;;1931078;73;20234;-83
2021/06/03 12:51:07;;;;;;;;;;;34.10;64.00;;;;;;1887986;75;20157;-83
2021/06/03 12:53:47;;;;;;;;;;;34.10;64.30;;;;;;1854694;76;20182;-84
2021/06/03 12:56:22;;;;;;;;;;;34.00;64.50;;;;;;1904339;74;20212;-82
2021/06/03 12:58:53;;;;;;;;;;;34.00;64.50;;;;;;1918604;73;20879;-82
2021/06/03 13:01:23;;;;;;;;;;;34.10;64.20;;;;;;1921601;73;20264;-83
2021/06/03 13:03:55;;;;;;;;;;;34.00;63.90;;;;;;1924127;73;20240;-83
2021/06/03 13:06:26;;;;;;;;;;;34.00;63.80;;;;;;1926546;73;20416;-84
2021/06/03 13:09:01;;;;;;;;;;;34.00;64.10;;;;;;1879095;75;20179;-84
2021/06/03 13:11:30;;;;;;;;;;;34.00;63.90;;;;;;1850427;76;20207;-83
2021/06/03 13:14:01;;;;;;;;;;;34.10;64.60;;;;;;1891728;75;20140;-83
2021/06/03 13:16:35;;;;;;;;;;;34.00;64.80;;;;;;1894064;75;20119;-83
2021/06/03 13:19:07;;;;;;;;;;;34.10;64.60;;;;;;1887952;75;20169;-91
2021/06/03 13:21:37;;;;;;;;;;;34.00;64.70;;;;;;1890929;75;20160;-92
2021/06/03 13:24:08;;;;;;;;;;;34.00;64.90;;;;;;1895321;74;20195;-91
2021/06/03 13:26:39;;;;;;;;;;;34.10;65.40;;;;;;1878965;75;20168;-91
2021/06/03 13:29:12;;;;;;;;;;;34.00;66.60;;;;;;1872681;75;20180;-91
2021/06/03 13:31:43;;;;;;;;;;;34.00;66.10;;;;;;1884628;74;20131;-91
2021/06/03 13:34:16;;;;;;;;;;;33.90;64.30;;;;;;1871142;75;20176;-91
2021/06/03 13:36:47;;;;;;;;;;;33.80;63.90;;;;;;1868717;75;20228;-91
2021/06/03 13:39:18;;;;;;;;;;;33.80;63.80;;;;;;1866805;75;20238;-92
2021/06/03 13:41:50;;;;;;;;;;;33.70;63.10;;;;;;1878010;75;20180;-93
2021/06/03 13:44:20;;;;;;;;;;;33.50;60.50;;;;;;1865406;76;20152;-91
2021/06/03 13:46:51;;;;;;;;;;;33.50;60.40;;;;;;1872336;76;20250;-91
2021/06/03 13:49:26;;;;;;;;;;;33.30;59.80;;;;;;1899540;74;20239;-89
2021/06/03 13:51:57;;;;;;;;;;;33.30;59.70;;;;;;1896981;74;20224;-91
2021/06/03 13:54:28;;;;;;;;;;;33.20;59.20;;;;;;1899188;75;20180;-92
2021/06/03 13:57:13;;;;;;;;;;;33.10;59.20;;;;;;1895234;74;20245;-91
2021/06/03 13:59:39;;;;;;;;;;;33.10;59.30;;;;;;1859439;76;20208;-91
2021/06/03 14:02:10;;;;;;;;;;;33.10;59.50;;;;;;1859805;76;20205;-90
2021/06/03 14:04:43;;;;;;;;;;;33.10;59.50;;;;;;1867171;76;20215;-91
2021/06/03 14:07:17;;;;;;;;;;;33.00;59.60;;;;;;1855284;76;20250;-93
2021/06/03 14:09:50;;;;;;;;;;;33.00;59.70;;;;;;1870302;76;20235;-92
2021/06/03 14:12:36;;;;;;;;;;;33.00;59.80;;;;;;1842463;76;20190;-90
2021/06/03 14:15:04;;;;;;;;;;;33.00;58.90;;;;;;1833086;76;20237;-90
2021/06/03 14:17:32;;;;;;;;;;;33.00;59.20;;;;;;1814852;78;20516;-92
2021/06/03 14:20:07;;;;;;;;;;;33.00;59.60;;;;;;1861522;76;20182;-91
2021/06/03 14:22:40;;;;;;;;;;;33.10;59.90;;;;;;1857897;76;20168;-92
2021/06/03 14:25:11;;;;;;;;;;;33.10;59.10;;;;;;1872038;76;20208;-91
2021/06/03 14:27:43;;;;;;;;;;;33.10;58.90;;;;;;1863058;76;20450;-92
2021/06/03 14:30:15;;;;;;;;;;;33.10;58.80;;;;;;1860945;76;20214;-92
2021/06/03 14:32:46;;;;;;;;;;;33.10;59.00;;;;;;1873000;75;20119;-91
2021/06/03 14:35:18;;;;;;;;;;;33.10;59.00;;;;;;1837163;77;20245;-92
2021/06/03 14:37:50;;;;;;;;;;;33.10;59.10;;;;;;1862692;76;20241;-92
2021/06/03 14:40:24;;;;;;;;;;;33.10;59.30;;;;;;1866576;76;20261;-90
2021/06/03 14:42:53;;;;;;;;;;;33.10;59.50;;;;;;1873342;75;20507;-92
2021/06/03 14:45:31;;;;;;;;;;;33.10;59.30;;;;;;1879925;75;20385;-92
2021/06/03 14:48:02;;;;;;;;;;;33.10;59.40;;;;;;1881408;75;20235;-93
2021/06/03 14:50:33;;;;;;;;;;;33.10;59.60;;;;;;1862941;76;20151;-92
2021/06/03 14:53:05;;;;;;;;;;;33.10;59.70;;;;;;1861839;76;20248;-91